createdAt,value
2018-03-18T00:02:23.902Z,-4.80
2018-03-18T00:05:27.740Z,-4.80
2018-03-18T00:08:31.218Z,-4.90
2018-03-18T00:11:34.492Z,-4.90
2018-03-18T00:14:37.767Z,-4.90
2018-03-18T00:17:41.178Z,-4.90
2018-03-18T00:20:44.469Z,-4.90
2018-03-18T00:23:47.696Z,-4.90
2018-03-18T00:26:50.987Z,-4.90
2018-03-18T00:29:54.283Z,-4.80
2018-03-18T00:32:57.810Z,-4.90
2018-03-18T00:36:01.051Z,-4.90
2018-03-18T00:39:04.365Z,-4.90
2018-03-18T00:42:07.668Z,-4.90
2018-03-18T00:45:10.970Z,-4.90
2018-03-18T00:48:14.215Z,-4.90
2018-03-18T00:51:29.516Z,-5.00
2018-03-18T00:54:32.911Z,-4.90
2018-03-18T00:57:36.908Z,-4.90
2018-03-18T01:00:40.706Z,-4.90
2018-03-18T01:03:44.725Z,-4.90
2018-03-18T01:06:48.131Z,-4.90
2018-03-18T01:09:51.419Z,-4.90
2018-03-18T01:12:54.776Z,-4.90
2018-03-18T01:15:58.067Z,-4.90
2018-03-18T01:19:01.684Z,-4.90
2018-03-18T01:22:05.316Z,-4.90
2018-03-18T01:25:08.876Z,-5.00
2018-03-18T01:28:12.120Z,-5.00
2018-03-18T01:31:15.391Z,-4.90
2018-03-18T01:34:18.658Z,-4.90
2018-03-18T01:37:22.501Z,-5.00
2018-03-18T01:40:26.715Z,-4.90
2018-03-18T01:43:30.490Z,-5.00
2018-03-18T01:46:34.086Z,-5.00
2018-03-18T01:49:37.646Z,-5.00
2018-03-18T01:52:41.232Z,-5.00
2018-03-18T01:55:44.568Z,-5.00
2018-03-18T01:58:47.823Z,-5.00
2018-03-18T02:01:51.214Z,-5.00
2018-03-18T02:04:55.271Z,-5.00
2018-03-18T02:07:59.351Z,-5.00
2018-03-18T02:11:04.058Z,-5.00
2018-03-18T02:14:08.131Z,-5.00
2018-03-18T02:17:11.396Z,-5.00
2018-03-18T02:20:14.688Z,-5.00
2018-03-18T02:23:18.898Z,-5.00
2018-03-18T02:26:22.367Z,-5.00
2018-03-18T02:29:25.654Z,-5.10
2018-03-18T02:32:28.909Z,-5.10
2018-03-18T02:35:32.245Z,-5.10
2018-03-18T02:38:35.524Z,-5.10
2018-03-18T02:41:39.981Z,-5.10
2018-03-18T02:44:43.330Z,-5.10
2018-03-18T02:47:47.435Z,-5.10
2018-03-18T02:50:50.791Z,-5.10
2018-03-18T02:53:54.436Z,-5.20
2018-03-18T02:56:58.229Z,-5.10
2018-03-18T03:00:01.490Z,-5.20
2018-03-18T03:03:04.915Z,-5.20
2018-03-18T03:06:08.296Z,-5.20
2018-03-18T03:09:11.582Z,-5.20
2018-03-18T03:12:16.236Z,-5.30
2018-03-18T03:15:19.612Z,-5.30
2018-03-18T03:18:22.928Z,-5.30
2018-03-18T03:21:26.252Z,-5.20
2018-03-18T03:24:30.415Z,-5.20
2018-03-18T03:27:33.921Z,-5.30
2018-03-18T03:30:37.426Z,-5.30
2018-03-18T03:33:41.134Z,-5.30
2018-03-18T03:36:44.806Z,-5.40
2018-03-18T03:39:48.874Z,-5.40
2018-03-18T03:42:52.274Z,-5.40
2018-03-18T03:45:55.706Z,-5.40
2018-03-18T03:48:59.010Z,-5.40
2018-03-18T03:52:03.076Z,-5.50
2018-03-18T03:55:06.388Z,-5.50
2018-03-18T03:58:10.942Z,-5.50
2018-03-18T04:01:15.018Z,-5.50
2018-03-18T04:04:18.321Z,-5.50
2018-03-18T04:07:21.577Z,-5.60
2018-03-18T04:10:25.601Z,-5.60
2018-03-18T04:13:29.670Z,-5.60
2018-03-18T04:16:32.976Z,-5.60
2018-03-18T04:19:38.266Z,-5.60
2018-03-18T04:22:41.845Z,-5.60
2018-03-18T04:25:45.202Z,-5.60
2018-03-18T04:28:48.893Z,-5.70
2018-03-18T04:31:52.361Z,-5.70
2018-03-18T04:34:55.854Z,-5.70
2018-03-18T04:37:59.085Z,-5.70
2018-03-18T04:41:02.403Z,-5.70
2018-03-18T04:44:06.216Z,-5.70
2018-03-18T04:47:09.476Z,-5.70
2018-03-18T04:50:13.410Z,-5.80
2018-03-18T04:53:16.751Z,-5.80
2018-03-18T04:56:20.960Z,-5.80
2018-03-18T04:59:24.221Z,-5.90
2018-03-18T05:02:27.756Z,-5.80
2018-03-18T05:05:32.120Z,-5.90
2018-03-18T05:08:35.941Z,-5.90
2018-03-18T05:11:39.397Z,-5.90
2018-03-18T05:14:43.437Z,-5.90
2018-03-18T05:17:46.805Z,-5.90
2018-03-18T05:20:51.277Z,-6.00
2018-03-18T05:23:54.557Z,-6.00
2018-03-18T05:26:57.828Z,-6.00
2018-03-18T05:30:01.127Z,-6.00
2018-03-18T05:33:04.421Z,-6.00
2018-03-18T05:36:07.772Z,-6.00
2018-03-18T05:39:11.172Z,-6.10
2018-03-18T05:42:14.917Z,-6.10
2018-03-18T05:45:18.184Z,-6.10
2018-03-18T05:48:21.803Z,-6.10
2018-03-18T05:51:26.063Z,-6.10
2018-03-18T05:54:29.817Z,-6.20
2018-03-18T05:57:33.070Z,-6.10
2018-03-18T06:00:36.384Z,-6.10
2018-03-18T06:03:40.159Z,-6.10
2018-03-18T06:06:43.488Z,-6.20
2018-03-18T06:09:46.763Z,-6.20
2018-03-18T06:12:50.476Z,-6.20
2018-03-18T06:15:53.856Z,-6.20
2018-03-18T06:18:57.901Z,-6.20
2018-03-18T06:22:01.761Z,-6.20
2018-03-18T06:25:05.610Z,-6.20
2018-03-18T06:28:08.892Z,-6.20
2018-03-18T06:31:12.214Z,-6.20
2018-03-18T06:34:15.903Z,-6.20
2018-03-18T06:37:19.701Z,-6.10
2018-03-18T06:40:23.028Z,-6.00
2018-03-18T06:43:27.335Z,-6.00
2018-03-18T06:46:30.856Z,-6.10
2018-03-18T06:49:34.389Z,-6.10
2018-03-18T06:52:38.101Z,-6.10
2018-03-18T06:55:41.656Z,-6.00
2018-03-18T06:58:45.263Z,-6.10
2018-03-18T07:01:48.986Z,-6.00
2018-03-18T07:04:52.259Z,-6.00
2018-03-18T07:07:56.202Z,-6.00
2018-03-18T07:10:59.814Z,-6.00
2018-03-18T07:14:03.282Z,-5.90
2018-03-18T07:17:06.894Z,-5.90
2018-03-18T07:20:10.292Z,-5.80
2018-03-18T07:23:13.671Z,-5.80
2018-03-18T07:26:18.156Z,-5.60
2018-03-18T07:29:21.492Z,-5.60
2018-03-18T07:32:24.759Z,-5.60
2018-03-18T07:35:28.123Z,-5.40
2018-03-18T07:38:31.489Z,-5.00
2018-03-18T07:41:34.721Z,-5.30
2018-03-18T07:44:37.969Z,-5.50
2018-03-18T07:47:41.245Z,-5.50
2018-03-18T07:50:44.668Z,-5.30
2018-03-18T07:53:48.044Z,-5.10
2018-03-18T07:56:51.395Z,-4.90
2018-03-18T07:59:54.647Z,-5.00
2018-03-18T08:02:58.717Z,-5.00
2018-03-18T08:06:02.341Z,-5.00
2018-03-18T08:09:05.894Z,-4.90
2018-03-18T08:12:09.168Z,-4.80
2018-03-18T08:15:13.492Z,-4.60
2018-03-18T08:18:17.831Z,-4.00
2018-03-18T08:21:21.281Z,-4.00
2018-03-18T08:24:24.545Z,-3.40
2018-03-18T08:27:27.807Z,-3.40
2018-03-18T08:30:31.537Z,-3.70
2018-03-18T08:33:34.795Z,-4.20
2018-03-18T08:36:38.619Z,-4.20
2018-03-18T08:39:42.008Z,-4.00
2018-03-18T08:42:46.315Z,-4.20
2018-03-18T08:45:49.945Z,-4.20
2018-03-18T08:48:53.880Z,-4.40
2018-03-18T08:51:57.431Z,-4.10
2018-03-18T08:55:00.902Z,-4.20
2018-03-18T08:58:04.827Z,-4.10
2018-03-18T09:01:08.902Z,-4.00
2018-03-18T09:04:12.476Z,-4.00
2018-03-18T09:07:15.890Z,-4.50
2018-03-18T09:10:19.263Z,-4.50
2018-03-18T09:13:23.511Z,-4.10
2018-03-18T09:16:27.595Z,-4.10
2018-03-18T09:19:31.968Z,-4.00
2018-03-18T09:22:35.528Z,-4.00
2018-03-18T09:25:39.436Z,-4.50
2018-03-18T09:28:42.786Z,-4.50
2018-03-18T09:31:46.153Z,-4.50
2018-03-18T09:34:49.469Z,-4.60
2018-03-18T09:37:52.811Z,-4.40
2018-03-18T09:40:56.072Z,-3.70
2018-03-18T09:44:00.210Z,-3.70
2018-03-18T09:47:03.722Z,-4.00
2018-03-18T09:50:07.246Z,-3.40
2018-03-18T09:53:10.622Z,-4.00
2018-03-18T09:56:14.090Z,-3.60
2018-03-18T09:59:17.804Z,-3.60
2018-03-18T10:02:21.405Z,-3.80
2018-03-18T10:05:24.658Z,-4.00
2018-03-18T10:08:27.994Z,-3.80
2018-03-18T10:11:31.258Z,-3.50
2018-03-18T10:14:34.911Z,-3.40
2018-03-18T10:17:38.816Z,-3.50
2018-03-18T10:20:42.646Z,-3.70
2018-03-18T10:23:46.356Z,-4.00
2018-03-18T10:26:49.678Z,-3.60
2018-03-18T10:29:52.948Z,-3.30
2018-03-18T10:32:56.535Z,-3.10
2018-03-18T10:35:59.802Z,-3.10
2018-03-18T10:39:03.573Z,-3.00
2018-03-18T10:42:07.213Z,-3.30
2018-03-18T10:45:10.502Z,-3.80
2018-03-18T10:48:14.251Z,-3.80
2018-03-18T10:51:17.866Z,-3.80
2018-03-18T10:54:21.903Z,-3.50
2018-03-18T10:57:26.332Z,-3.40
2018-03-18T11:00:39.251Z,-3.40
2018-03-18T11:03:42.773Z,-3.20
2018-03-18T11:06:46.109Z,-3.00
2018-03-18T11:09:49.879Z,-3.30
2018-03-18T11:12:53.899Z,-3.00
2018-03-18T11:15:57.232Z,-3.00
2018-03-18T11:19:00.683Z,-3.30
2018-03-18T11:22:04.020Z,-3.00
2018-03-18T11:25:07.351Z,-2.90
2018-03-18T11:28:11.515Z,-3.00
2018-03-18T11:31:16.249Z,-3.40
2018-03-18T11:34:23.938Z,-3.40
2018-03-18T11:37:27.362Z,-3.40
2018-03-18T11:40:31.026Z,-3.50
2018-03-18T11:43:34.460Z,-3.40
2018-03-18T11:46:38.312Z,-3.30
2018-03-18T11:49:42.694Z,-3.40
2018-03-18T11:52:46.842Z,-3.30
2018-03-18T11:55:50.223Z,-3.40
2018-03-18T11:58:53.862Z,-3.50
2018-03-18T12:01:57.363Z,-3.40
2018-03-18T12:05:01.280Z,-3.40
2018-03-18T12:08:05.338Z,-3.50
2018-03-18T12:11:08.632Z,-3.50
2018-03-18T12:14:11.953Z,-3.50
2018-03-18T12:17:15.594Z,-3.30
2018-03-18T12:20:18.926Z,-3.30
2018-03-18T12:23:22.285Z,-3.40
2018-03-18T12:26:26.554Z,-3.50
2018-03-18T12:29:30.552Z,-3.50
2018-03-18T12:32:33.911Z,-3.50
2018-03-18T12:35:37.996Z,-3.50
2018-03-18T12:38:41.331Z,-3.50
2018-03-18T12:41:44.805Z,-3.20
2018-03-18T12:44:48.473Z,-3.30
2018-03-18T12:47:52.231Z,-3.30
2018-03-18T12:50:56.118Z,-3.30
2018-03-18T12:53:59.656Z,-3.40
2018-03-18T12:57:02.955Z,-3.40
2018-03-18T13:00:06.501Z,-3.40
2018-03-18T13:03:11.450Z,-3.30
2018-03-18T13:06:16.382Z,-3.30
2018-03-18T13:09:20.574Z,-3.30
2018-03-18T13:12:24.008Z,-3.30
2018-03-18T13:15:27.634Z,-3.30
2018-03-18T13:18:31.414Z,-3.40
2018-03-18T13:21:35.088Z,-3.30
2018-03-18T13:24:39.012Z,-3.20
2018-03-18T13:27:42.634Z,-3.20
2018-03-18T13:30:46.912Z,-3.10
2018-03-18T13:33:51.242Z,-3.10
2018-03-18T13:40:11.519Z,-3.20
2018-03-18T13:46:53.795Z,-3.20
2018-03-18T13:49:57.246Z,-3.20
2018-03-18T13:53:00.609Z,-3.00
2018-03-18T13:56:04.060Z,-3.10
2018-03-18T13:59:07.456Z,-3.00
2018-03-18T14:02:10.843Z,-2.90
2018-03-18T14:05:14.952Z,-3.10
2018-03-18T14:08:18.223Z,-3.10
2018-03-18T14:11:21.585Z,-3.00
2018-03-18T14:14:24.884Z,-3.00
2018-03-18T14:17:28.674Z,-2.90
2018-03-18T14:20:32.264Z,-2.90
2018-03-18T14:23:35.600Z,-3.10
2018-03-18T14:26:39.092Z,-2.90
2018-03-18T14:29:43.090Z,-3.00
2018-03-18T14:32:47.410Z,-2.80
2018-03-18T14:35:50.923Z,-2.80
2018-03-18T14:38:54.301Z,-2.80
2018-03-18T14:41:58.406Z,-2.60
2018-03-18T14:45:01.735Z,-2.60
2018-03-18T14:48:05.787Z,-2.60
2018-03-18T14:51:09.816Z,-2.70
2018-03-18T14:54:13.179Z,-2.80
2018-03-18T14:57:17.155Z,-2.60
2018-03-18T15:00:21.424Z,-2.60
2018-03-18T15:03:25.208Z,-2.70
2018-03-18T15:06:28.784Z,-2.70
2018-03-18T15:09:32.256Z,-2.70
2018-03-18T15:12:36.660Z,-2.60
2018-03-18T15:15:40.304Z,-2.70
2018-03-18T15:18:44.035Z,-2.70
2018-03-18T15:21:47.527Z,-2.80
2018-03-18T15:24:51.825Z,-2.80
2018-03-18T15:27:55.222Z,-2.80
2018-03-18T15:30:58.520Z,-2.70
2018-03-18T15:34:01.899Z,-2.80
2018-03-18T15:37:05.229Z,-2.80
2018-03-18T15:40:08.882Z,-2.80
2018-03-18T15:43:12.575Z,-2.80
2018-03-18T15:46:16.081Z,-2.80
2018-03-18T15:49:19.369Z,-2.80
2018-03-18T15:52:22.712Z,-2.90
2018-03-18T15:55:25.973Z,-2.90
2018-03-18T15:58:29.554Z,-2.90
2018-03-18T16:01:33.367Z,-3.00
2018-03-18T16:04:36.945Z,-3.00
2018-03-18T16:07:40.425Z,-2.90
2018-03-18T16:10:44.068Z,-2.90
2018-03-18T16:13:47.445Z,-3.00
2018-03-18T16:16:51.251Z,-2.90
2018-03-18T16:19:54.768Z,-2.90
2018-03-18T16:22:58.220Z,-2.90
2018-03-18T16:26:01.848Z,-2.90
2018-03-18T16:29:16.928Z,-3.00
2018-03-18T16:32:21.805Z,-3.00
2018-03-18T16:35:25.118Z,-3.00
2018-03-18T16:38:28.396Z,-3.00
2018-03-18T16:41:32.035Z,-3.00
2018-03-18T16:44:35.454Z,-3.10
2018-03-18T16:47:40.619Z,-3.20
2018-03-18T16:50:44.021Z,-3.20
2018-03-18T16:53:50.810Z,-3.20
2018-03-18T16:56:54.389Z,-3.20
2018-03-18T17:00:00.673Z,-3.30
2018-03-18T17:03:04.041Z,-3.30
2018-03-18T17:06:07.311Z,-3.30
2018-03-18T17:09:10.609Z,-3.30
2018-03-18T17:12:15.353Z,-3.30
2018-03-18T17:15:18.703Z,-3.30
2018-03-18T17:18:22.501Z,-3.40
2018-03-18T17:21:26.169Z,-3.40
2018-03-18T17:24:29.936Z,-3.40
2018-03-18T17:27:33.306Z,-3.40
2018-03-18T17:30:37.331Z,-3.50
2018-03-18T17:33:41.699Z,-3.40
2018-03-18T17:36:46.032Z,-3.40
2018-03-18T17:39:49.619Z,-3.40
2018-03-18T17:42:52.987Z,-3.40
2018-03-18T17:46:08.243Z,-3.50
2018-03-18T17:49:24.159Z,-3.50
2018-03-18T17:52:39.481Z,-3.60
2018-03-18T17:55:42.766Z,-3.60
2018-03-18T17:58:46.996Z,-3.60
2018-03-18T18:01:50.330Z,-3.70
2018-03-18T18:04:53.658Z,-3.70
2018-03-18T18:07:57.410Z,-3.70
2018-03-18T18:11:00.968Z,-3.70
2018-03-18T18:14:04.270Z,-3.70
2018-03-18T18:17:07.624Z,-3.80
2018-03-18T18:20:11.469Z,-3.80
2018-03-18T18:23:14.926Z,-3.80
2018-03-18T18:26:18.866Z,-3.80
2018-03-18T18:29:22.352Z,-3.80
2018-03-18T18:32:25.706Z,-3.90
2018-03-18T18:35:29.038Z,-3.90
2018-03-18T18:38:32.321Z,-3.90
2018-03-18T18:41:35.686Z,-3.90
2018-03-18T18:44:39.010Z,-3.90
2018-03-18T18:47:42.294Z,-3.90
2018-03-18T18:50:45.728Z,-3.90
2018-03-18T18:53:49.829Z,-4.00
2018-03-18T18:56:54.185Z,-4.00
2018-03-18T18:59:57.545Z,-4.00
2018-03-18T19:03:00.873Z,-3.90
2018-03-18T19:06:04.201Z,-4.00
2018-03-18T19:09:07.582Z,-4.00
2018-03-18T19:12:11.318Z,-4.00
2018-03-18T19:15:15.424Z,-4.00
2018-03-18T19:18:19.673Z,-4.00
2018-03-18T19:21:23.326Z,-4.00
2018-03-18T19:24:28.869Z,-4.00
2018-03-18T19:27:32.931Z,-4.10
2018-03-18T19:30:36.282Z,-4.10
2018-03-18T19:33:40.406Z,-4.10
2018-03-18T19:36:45.033Z,-4.10
2018-03-18T19:39:49.102Z,-4.20
2018-03-18T19:42:52.955Z,-4.20
2018-03-18T19:45:56.420Z,-4.20
2018-03-18T19:48:59.731Z,-4.20
2018-03-18T19:52:03.904Z,-4.20
2018-03-18T19:55:07.341Z,-4.20
2018-03-18T19:58:11.394Z,-4.20
2018-03-18T20:01:15.243Z,-4.30
2018-03-18T20:04:18.787Z,-4.30
2018-03-18T20:07:22.112Z,-4.30
2018-03-18T20:10:27.806Z,-4.20
2018-03-18T20:13:31.418Z,-4.20
2018-03-18T20:16:34.902Z,-4.20
2018-03-18T20:19:39.330Z,-4.30
2018-03-18T20:22:42.879Z,-4.30
2018-03-18T20:25:46.423Z,-4.30
2018-03-18T20:28:49.932Z,-4.40
2018-03-18T20:31:53.328Z,-4.40
2018-03-18T20:35:05.509Z,-4.50
2018-03-18T20:38:09.340Z,-4.50
2018-03-18T20:41:12.671Z,-4.50
2018-03-18T20:44:15.963Z,-4.50
2018-03-18T20:47:19.261Z,-4.60
2018-03-18T20:50:23.385Z,-4.60
2018-03-18T20:53:27.421Z,-4.60
2018-03-18T20:56:30.772Z,-4.60
2018-03-18T20:59:34.812Z,-4.70
2018-03-18T21:02:39.114Z,-4.70
2018-03-18T21:05:44.131Z,-4.70
2018-03-18T21:08:47.650Z,-4.80
2018-03-18T21:11:50.968Z,-4.80
2018-03-18T21:14:55.073Z,-4.80
2018-03-18T21:17:58.419Z,-4.80
2018-03-18T21:21:02.463Z,-4.80
2018-03-18T21:24:06.576Z,-4.80
2018-03-18T21:27:10.037Z,-4.90
2018-03-18T21:30:13.469Z,-4.90
2018-03-18T21:33:16.751Z,-4.90
2018-03-18T21:36:20.028Z,-5.00
2018-03-18T21:39:23.306Z,-5.00
2018-03-18T21:42:27.355Z,-5.10
2018-03-18T21:45:30.660Z,-5.10
2018-03-18T21:48:34.007Z,-5.10
2018-03-18T21:51:38.108Z,-5.10
2018-03-18T21:54:41.838Z,-5.10
2018-03-18T21:57:45.999Z,-5.20
2018-03-18T22:00:49.256Z,-5.20
2018-03-18T22:03:52.549Z,-5.20
2018-03-18T22:06:56.597Z,-5.20
2018-03-18T22:09:59.904Z,-5.30
2018-03-18T22:13:03.192Z,-5.30
2018-03-18T22:16:07.027Z,-5.30
2018-03-18T22:19:10.550Z,-5.30
2018-03-18T22:22:14.710Z,-5.40
2018-03-18T22:25:17.967Z,-5.40
2018-03-18T22:28:21.262Z,-5.40
2018-03-18T22:31:25.405Z,-5.50
2018-03-18T22:34:28.785Z,-5.50
2018-03-18T22:37:32.829Z,-5.50
2018-03-18T22:40:36.139Z,-5.50
2018-03-18T22:43:39.559Z,-5.50
2018-03-18T22:46:42.831Z,-5.50
2018-03-18T22:49:46.148Z,-5.60
2018-03-18T22:52:49.421Z,-5.60
2018-03-18T22:55:52.704Z,-5.60
2018-03-18T22:58:56.012Z,-5.60
2018-03-18T23:01:59.558Z,-5.60
2018-03-18T23:05:03.004Z,-5.60
2018-03-18T23:08:06.314Z,-5.60
2018-03-18T23:11:09.610Z,-5.60
2018-03-18T23:14:12.899Z,-5.60
2018-03-18T23:17:17.055Z,-5.60
2018-03-18T23:20:20.360Z,-5.70
2018-03-18T23:23:23.650Z,-5.60
2018-03-18T23:26:26.895Z,-5.60
2018-03-18T23:29:30.240Z,-5.50
2018-03-18T23:32:33.488Z,-5.50
2018-03-18T23:35:37.542Z,-5.50
2018-03-18T23:38:41.083Z,-5.50
2018-03-18T23:41:44.413Z,-5.50
2018-03-18T23:44:48.218Z,-5.50
2018-03-18T23:47:51.621Z,-5.40
2018-03-18T23:50:54.918Z,-5.50
2018-03-18T23:53:59.089Z,-5.40
2018-03-18T23:57:06.031Z,-5.40
